createdAt,value
2019-04-21T00:02:05.419Z,5.00
2019-04-21T00:07:09.965Z,5.33
2019-04-21T00:11:55.693Z,4.90
2019-04-21T00:16:38.207Z,5.13
2019-04-21T00:21:25.596Z,4.87
2019-04-21T00:26:16.152Z,5.10
2019-04-21T00:31:06.451Z,4.97
2019-04-21T00:35:45.301Z,5.17
2019-04-21T00:40:52.114Z,4.00
2019-04-21T00:45:27.553Z,4.67
2019-04-21T00:50:18.007Z,3.63
2019-04-21T00:55:27.641Z,4.30
2019-04-21T01:00:15.520Z,4.13
2019-04-21T01:05:02.032Z,4.33
2019-04-21T01:09:37.484Z,4.30
2019-04-21T01:14:37.298Z,3.60
2019-04-21T01:19:18.248Z,4.90
2019-04-21T01:23:44.632Z,5.60
2019-04-21T01:28:54.527Z,5.37
2019-04-21T01:33:41.240Z,5.13
2019-04-21T01:38:32.594Z,5.80
2019-04-21T01:43:17.612Z,5.17
2019-04-21T01:47:59.713Z,5.30
2019-04-21T01:52:50.295Z,4.90
2019-04-21T01:57:52.793Z,5.10
2019-04-21T02:02:46.218Z,4.70
2019-04-21T02:07:27.171Z,4.97
2019-04-21T02:12:18.869Z,4.57
2019-04-21T02:17:12.444Z,4.80
2019-04-21T02:21:43.605Z,5.00
2019-04-21T02:26:41.162Z,4.80
2019-04-21T02:31:40.523Z,4.93
2019-04-21T02:36:32.712Z,4.80
2019-04-21T02:41:07.922Z,4.57
2019-04-21T02:55:32.786Z,4.33
2019-04-21T03:05:29.622Z,4.10
2019-04-21T03:19:51.991Z,5.00
2019-04-21T03:29:28.270Z,4.10
2019-04-21T03:38:57.040Z,4.57
2019-04-21T03:43:44.267Z,5.50
2019-04-21T03:48:35.570Z,5.13
2019-04-21T03:53:18.649Z,4.63
2019-04-21T04:03:35.255Z,5.33
2019-04-21T04:08:12.352Z,4.33
2019-04-21T04:12:52.229Z,3.83
2019-04-21T04:17:54.406Z,4.13
2019-04-21T04:32:00.770Z,4.77
2019-04-21T04:46:52.788Z,4.33
2019-04-21T04:51:43.845Z,4.03
2019-04-21T04:56:25.315Z,4.43
2019-04-21T05:01:14.309Z,4.23
2019-04-21T05:11:23.041Z,5.03
2019-04-21T05:16:02.214Z,4.43
2019-04-21T05:20:52.215Z,4.63
2019-04-21T05:25:18.536Z,4.30
2019-04-21T05:30:22.151Z,5.10
2019-04-21T05:35:07.916Z,4.00
2019-04-21T05:40:00.657Z,4.83
2019-04-21T05:45:01.802Z,4.30
2019-04-21T05:49:56.032Z,11.90
2019-04-21T05:59:40.005Z,5.77
2019-04-21T06:04:38.568Z,3.77
2019-04-21T06:09:14.362Z,3.53
2019-04-21T06:14:02.500Z,3.87
2019-04-21T06:18:52.974Z,3.70
2019-04-21T06:23:36.779Z,3.40
2019-04-21T06:28:28.746Z,3.47
2019-04-21T06:33:04.933Z,3.37
2019-04-21T06:37:56.465Z,3.10
2019-04-21T06:42:53.921Z,2.90
2019-04-21T06:47:42.351Z,2.63
2019-04-21T06:52:42.318Z,2.40
2019-04-21T06:57:10.097Z,3.00
2019-04-21T07:01:56.611Z,2.70
2019-04-21T07:06:50.040Z,2.67
2019-04-21T07:11:30.245Z,2.33
2019-04-21T07:16:18.759Z,3.13
2019-04-21T07:21:09.632Z,3.10
2019-04-21T07:26:01.375Z,3.77
2019-04-21T07:30:51.832Z,3.67
2019-04-21T07:35:51.700Z,3.50
2019-04-21T07:40:22.060Z,3.43
2019-04-21T07:45:09.004Z,2.90
2019-04-21T07:50:17.761Z,3.40
2019-04-21T07:55:12.905Z,2.90
2019-04-21T08:00:04.041Z,2.97
2019-04-21T08:04:54.386Z,2.57
2019-04-21T08:09:27.005Z,2.70
2019-04-21T08:14:17.017Z,1.97
2019-04-21T08:19:11.360Z,2.23
2019-04-21T08:23:48.416Z,2.33
2019-04-21T08:28:39.823Z,2.20
2019-04-21T08:33:32.486Z,2.30
2019-04-21T08:38:13.563Z,1.77
2019-04-21T08:43:02.935Z,1.80
2019-04-21T08:52:44.353Z,2.07
2019-04-21T08:57:41.913Z,1.80
2019-04-21T09:02:24.874Z,1.47
2019-04-21T09:07:20.010Z,1.32
2019-04-21T09:12:01.647Z,1.45
2019-04-21T09:16:44.006Z,2.10
2019-04-21T09:21:39.204Z,1.13
2019-04-21T09:26:20.092Z,1.50
2019-04-21T09:30:56.893Z,1.10
2019-04-21T09:35:41.576Z,1.17
2019-04-21T09:40:32.691Z,0.90
2019-04-21T09:45:14.279Z,1.10
2019-04-21T09:50:03.088Z,0.90
2019-04-21T09:55:01.163Z,0.90
2019-04-21T09:59:40.076Z,1.10
2019-04-21T10:04:23.487Z,1.10
2019-04-21T10:09:29.008Z,1.00
2019-04-21T10:14:15.342Z,0.90
2019-04-21T10:19:02.458Z,1.20
2019-04-21T10:23:48.415Z,1.00
2019-04-21T10:28:35.139Z,1.15
2019-04-21T10:33:22.028Z,1.20
2019-04-21T10:38:21.779Z,0.90
2019-04-21T10:42:56.357Z,0.88
2019-04-21T10:47:43.073Z,1.10
2019-04-21T10:52:48.986Z,0.90
2019-04-21T10:57:35.377Z,1.20
2019-04-21T11:02:28.816Z,1.10
2019-04-21T11:07:36.143Z,1.22
2019-04-21T11:12:20.182Z,0.98
2019-04-21T11:17:06.265Z,0.90
2019-04-21T11:21:52.599Z,1.30
2019-04-21T11:26:40.045Z,0.95
2019-04-21T11:31:27.173Z,1.20
2019-04-21T11:36:13.702Z,1.35
2019-04-21T11:41:00.045Z,1.20
2019-04-21T11:45:46.640Z,0.98
2019-04-21T11:50:32.901Z,1.40
2019-04-21T11:55:18.812Z,1.25
2019-04-21T12:00:06.099Z,1.32
2019-04-21T12:04:52.157Z,1.30
2019-04-21T12:09:39.570Z,1.10
2019-04-21T12:14:28.069Z,1.00
2019-04-21T12:19:14.581Z,1.10
2019-04-21T12:24:00.988Z,1.20
2019-04-21T12:28:47.903Z,0.70
2019-04-21T12:33:56.180Z,1.10
2019-04-21T12:38:48.876Z,1.10
2019-04-21T12:43:30.688Z,1.00
2019-04-21T12:48:17.922Z,2.05
2019-04-21T12:53:05.102Z,1.22
2019-04-21T12:57:53.105Z,1.40
2019-04-21T13:02:39.947Z,1.27
2019-04-21T13:07:27.649Z,1.40
2019-04-21T13:12:15.210Z,1.20
2019-04-21T13:17:01.974Z,1.20
2019-04-21T13:21:49.827Z,1.70
2019-04-21T13:26:43.935Z,1.20
2019-04-21T13:31:24.656Z,1.40
2019-04-21T13:36:11.764Z,1.20
2019-04-21T13:41:29.680Z,1.80
2019-04-21T13:46:05.891Z,1.90
2019-04-21T13:50:53.424Z,1.25
2019-04-21T13:55:40.763Z,1.52
2019-04-21T14:00:27.647Z,1.30
2019-04-21T14:05:15.791Z,1.30
2019-04-21T14:10:06.525Z,1.72
2019-04-21T14:14:50.339Z,1.20
2019-04-21T14:19:37.372Z,1.35
2019-04-21T14:24:24.544Z,1.10
2019-04-21T14:29:11.410Z,1.30
2019-04-21T14:33:58.078Z,1.30
2019-04-21T14:38:46.862Z,1.20
2019-04-21T14:43:34.114Z,1.15
2019-04-21T14:48:39.096Z,1.20
2019-04-21T14:53:27.711Z,1.20
2019-04-21T14:58:14.990Z,1.12
2019-04-21T15:03:01.443Z,1.25
2019-04-21T15:07:48.682Z,1.17
2019-04-21T15:12:36.086Z,1.05
2019-04-21T15:17:24.121Z,1.30
2019-04-21T15:22:10.314Z,1.07
2019-04-21T15:26:56.929Z,1.10
2019-04-21T15:31:44.714Z,0.90
2019-04-21T15:36:33.300Z,1.10
2019-04-21T15:41:18.824Z,1.10
2019-04-21T15:46:05.026Z,1.70
2019-04-21T15:50:51.800Z,1.10
2019-04-21T15:55:52.841Z,1.10
2019-04-21T16:00:50.558Z,1.20
2019-04-21T16:05:37.103Z,1.07
2019-04-21T16:10:34.600Z,1.40
2019-04-21T16:15:12.495Z,1.60
2019-04-21T16:19:59.741Z,1.00
2019-04-21T16:24:46.040Z,1.37
2019-04-21T16:29:33.641Z,1.47
2019-04-21T16:34:19.946Z,1.20
2019-04-21T16:39:09.395Z,1.30
2019-04-21T16:43:55.772Z,2.10
2019-04-21T16:48:42.042Z,1.60
2019-04-21T16:53:42.156Z,1.80
2019-04-21T16:58:32.629Z,1.65
2019-04-21T17:03:18.838Z,1.67
2019-04-21T17:08:05.999Z,2.30
2019-04-21T17:12:53.611Z,1.80
2019-04-21T17:18:00.843Z,1.60
2019-04-21T17:22:27.940Z,2.02
2019-04-21T17:27:15.282Z,2.25
2019-04-21T17:32:03.009Z,3.02
2019-04-21T17:36:48.858Z,4.30
2019-04-21T17:41:43.422Z,4.72
2019-04-21T17:46:30.491Z,2.77
2019-04-21T17:51:51.772Z,4.30
2019-04-21T17:57:00.417Z,3.07
2019-04-21T18:01:43.441Z,2.20
2019-04-21T18:06:30.119Z,3.00
2019-04-21T18:11:05.723Z,2.43
2019-04-21T18:15:56.729Z,2.23
2019-04-21T18:20:35.699Z,2.90
2019-04-21T18:25:31.941Z,2.87
2019-04-21T18:30:52.083Z,2.50
2019-04-21T18:35:57.906Z,2.57
2019-04-21T18:40:49.069Z,3.43
2019-04-21T18:46:13.491Z,3.77
2019-04-21T18:50:51.044Z,4.17
2019-04-21T18:55:39.160Z,3.80
2019-04-21T19:00:24.400Z,3.80
2019-04-21T19:05:11.493Z,4.40
2019-04-21T19:10:36.296Z,5.60
2019-04-21T19:14:54.880Z,4.30
2019-04-21T19:20:10.594Z,3.63
2019-04-21T19:24:33.189Z,4.37
2019-04-21T19:34:06.173Z,5.77
2019-04-21T19:38:51.677Z,5.57
2019-04-21T19:43:52.307Z,6.60
2019-04-21T19:48:44.680Z,6.10
2019-04-21T19:53:21.118Z,5.00
2019-04-21T19:57:54.771Z,5.27
2019-04-21T20:02:42.696Z,4.50
2019-04-21T20:07:47.026Z,3.77
2019-04-21T20:12:42.683Z,3.60
2019-04-21T20:17:13.737Z,4.30
2019-04-21T20:21:53.371Z,3.73
2019-04-21T20:26:44.893Z,3.40
2019-04-21T20:31:50.600Z,4.40
2019-04-21T20:36:33.111Z,4.20
2019-04-21T20:41:25.675Z,4.47
2019-04-21T20:46:08.227Z,3.90
2019-04-21T20:51:00.625Z,4.23
2019-04-21T20:55:37.880Z,4.50
2019-04-21T21:00:31.796Z,4.87
2019-04-21T21:05:19.030Z,3.87
2019-04-21T21:10:14.103Z,4.63
2019-04-21T21:14:50.240Z,4.10
2019-04-21T21:19:45.658Z,4.00
2019-04-21T21:24:44.701Z,4.13
2019-04-21T21:29:25.196Z,3.23
2019-04-21T21:34:16.785Z,4.00
2019-04-21T21:39:01.246Z,4.80
2019-04-21T21:43:31.324Z,4.53
2019-04-21T21:48:36.673Z,3.90
2019-04-21T21:53:13.006Z,4.47
2019-04-21T21:57:56.305Z,4.37
2019-04-21T22:02:44.390Z,3.30
2019-04-21T22:07:32.902Z,4.13
2019-04-21T22:12:16.181Z,3.80
2019-04-21T22:17:16.167Z,4.10
2019-04-21T22:22:08.363Z,3.97
2019-04-21T22:26:37.113Z,4.10
2019-04-21T22:31:28.191Z,3.93
2019-04-21T22:36:26.669Z,3.77
2019-04-21T22:41:11.961Z,3.53
2019-04-21T22:45:47.305Z,2.93
2019-04-21T22:50:36.236Z,2.80
2019-04-21T22:55:25.855Z,3.67
2019-04-21T23:00:15.324Z,3.20
2019-04-21T23:05:00.526Z,3.23
2019-04-21T23:09:47.505Z,3.30
2019-04-21T23:14:45.374Z,3.50
2019-04-21T23:19:36.282Z,2.83
2019-04-21T23:24:34.651Z,2.63
2019-04-21T23:29:13.931Z,3.00
2019-04-21T23:33:44.197Z,3.00
2019-04-21T23:38:37.540Z,3.33
2019-04-21T23:43:24.382Z,3.00
2019-04-21T23:48:18.548Z,2.60
2019-04-21T23:52:53.347Z,3.30
2019-04-21T23:57:43.257Z,3.23
